Accueil
Images satellite Prévisions 15 joursClimatCyclones Foudre AéroportsFAQ Actualités A propos
Météo : Europe Afrique Amérique du Nord Amérique du Sud Asie Australie-Océanie Autres
Langues Contact

Biarritz, France

Anglet

latitude: 43-28N, longitude: 001-32W, altitude: 75 m


METAR: LFBZ 161430Z 34010KT 330V030 CAVOK 20/07 Q1018 NOSIG
short-TAF: périmé (47711 heures)
long-TAF: LFBZ 161100Z 1612/1712 VRB03KT CAVOK TEMPO 1612/1617 34013KT

Heure: 16:40 (14:40 UTC)

Observation

Le bulletin a été fait il y a 10 minutes, à 14:30 UTC  
Vent 10 kt de nord/nord-ouest, variant entre nord/nord-ouest et nord/nord-est
Température 20°C
Humidité 43%
Pression 1018 hPa
Visibilité 10 km ou plus
pas de nuages en-dessous de 1500 mètres et pas de cumulonimbus.

Changer d'unités

Prévision

Le bulletin a été fait il y a 3 heures et 25 minutes, à 11:15 UTC  
Prévision valable du 16 à 12 UTC au 17 à 12 UTC
Vent 03 kt de direction variable
Visibilité 10 km ou plus
pas de nuages en-dessous de 1500 mètres et pas de cumulonimbus.
Temporairement
du 16 à 12 UTC au 16 à 17 UTC
Vent 13 kt de nord/nord-ouest
Les informations qui figurent sur ce site font l'objet d'une clause de non-responsabilité
Météo : Europe Afrique Amérique du Nord Amérique du Sud Asie Australie-Océanie Autres
Images satellite Prévisions 15 joursClimatCyclones Foudre AéroportsFAQ Langues Contact Actualités A propos